createdAt,value
2016-11-08T00:00:59.220Z,0.28
2016-11-08T00:01:59.479Z,0.32
2016-11-08T00:02:59.135Z,0.33
2016-11-08T00:03:59.094Z,0.31
2016-11-08T00:04:59.048Z,0.15
2016-11-08T00:05:59.313Z,0.23
2016-11-08T00:06:59.264Z,0.13
2016-11-08T00:07:59.226Z,0.2
2016-11-08T00:08:59.188Z,0.04
2016-11-08T00:09:59.168Z,0.08
2016-11-08T00:10:58.800Z,0.1
2016-11-08T00:11:58.788Z,0.03
2016-11-08T00:12:59.013Z,0.03
2016-11-08T00:13:58.667Z,0.17
2016-11-08T00:14:58.629Z,0.04
2016-11-08T00:15:58.885Z,0.1
2016-11-08T00:16:58.542Z,0.21
2016-11-08T00:17:58.500Z,0.21
2016-11-08T00:18:58.457Z,0.18
2016-11-08T00:19:58.716Z,0.23
2016-11-08T00:20:58.671Z,0.23
2016-11-08T00:21:58.631Z,0.21
2016-11-08T00:22:58.286Z,0.29
2016-11-08T00:23:58.543Z,0.29
2016-11-08T00:24:58.503Z,0.32
2016-11-08T00:25:58.492Z,0.41
2016-11-08T00:26:58.415Z,0.36
2016-11-08T00:27:58.373Z,0.42
2016-11-08T00:28:58.331Z,0.41
2016-11-08T00:29:58.290Z,0.47
2016-11-08T00:30:58.286Z,0.46
2016-11-08T00:31:58.207Z,0.53
2016-11-08T00:32:58.165Z,0.44
2016-11-08T00:33:58.122Z,0.46
2016-11-08T00:34:57.813Z,0.57
2016-11-08T00:35:58.035Z,0.55
2016-11-08T00:36:57.994Z,0.61
2016-11-08T00:37:57.951Z,0.61
2016-11-08T00:38:57.611Z,0.62
2016-11-08T00:39:57.601Z,0.65
2016-11-08T00:40:57.824Z,0.66
2016-11-08T00:41:57.487Z,0.65
2016-11-08T00:42:57.736Z,0.68
2016-11-08T00:43:57.395Z,0.75
2016-11-08T00:44:57.655Z,0.69
2016-11-08T00:45:57.312Z,0.69
2016-11-08T00:46:57.569Z,0.7
2016-11-08T00:47:57.222Z,0.79
2016-11-08T00:48:57.183Z,0.76
2016-11-08T00:49:57.139Z,0.73
2016-11-08T00:50:57.400Z,0.76
2016-11-08T00:51:57.354Z,0.79
2016-11-08T00:52:57.316Z,0.83
2016-11-08T00:53:57.274Z,0.75
2016-11-08T00:54:57.233Z,0.87
2016-11-08T00:55:56.887Z,0.83
2016-11-08T00:56:57.143Z,0.76
2016-11-08T00:57:56.800Z,0.75
2016-11-08T00:58:57.062Z,0.72
2016-11-08T00:59:57.030Z,0.84
2016-11-08T01:00:56.977Z,0.75
2016-11-08T01:01:56.937Z,0.86
2016-11-08T01:02:56.588Z,0.86
2016-11-08T01:03:56.556Z,0.75
2016-11-08T01:04:56.806Z,0.84
2016-11-08T01:05:56.766Z,0.83
2016-11-08T01:06:56.722Z,0.86
2016-11-08T01:07:56.679Z,0.78
2016-11-08T01:08:56.636Z,0.79
2016-11-08T01:09:56.597Z,0.75
2016-11-08T01:10:56.593Z,0.76
2016-11-08T01:11:56.209Z,0.73
2016-11-08T01:12:56.468Z,0.73
2016-11-08T01:13:56.426Z,0.75
2016-11-08T01:14:56.085Z,0.75
2016-11-08T01:15:56.041Z,0.7
2016-11-08T01:16:56.002Z,0.66
2016-11-08T01:17:55.953Z,0.68
2016-11-08T01:18:55.913Z,0.66
2016-11-08T01:19:56.172Z,0.62
2016-11-08T01:20:56.132Z,0.6
2016-11-08T01:21:56.093Z,0.57
2016-11-08T01:22:55.750Z,0.58
2016-11-08T01:23:56.001Z,0.53
2016-11-08T01:24:55.658Z,0.49
2016-11-08T01:25:55.918Z,0.53
2016-11-08T01:26:55.872Z,0.51
2016-11-08T01:27:55.834Z,0.46
2016-11-08T01:28:55.490Z,0.42
2016-11-08T01:29:55.748Z,0.41
2016-11-08T01:30:55.703Z,0.42
2016-11-08T01:31:55.663Z,0.44
2016-11-08T01:32:55.621Z,0.41
2016-11-08T01:33:55.578Z,0.24
2016-11-08T01:34:55.534Z,0.32
2016-11-08T01:35:55.191Z,0.29
2016-11-08T01:36:55.151Z,0.24
2016-11-08T01:37:55.409Z,0.23
2016-11-08T01:38:55.066Z,0.2
2016-11-08T01:39:54.722Z,0.14
2016-11-08T01:40:55.281Z,0.15
2016-11-08T01:41:55.239Z,0.13
2016-11-08T01:42:55.199Z,0.21
2016-11-08T01:43:55.156Z,0.14
2016-11-08T01:44:55.109Z,0.11
2016-11-08T01:45:54.764Z,0.04
2016-11-08T01:46:55.022Z,-0.05
2016-11-08T01:47:54.984Z,-0.03
2016-11-08T01:48:54.939Z,-0.04
2016-11-08T01:49:54.899Z,-0.08
2016-11-08T01:50:54.554Z,-0.04
2016-11-08T01:51:54.809Z,-0.11
2016-11-08T01:52:54.469Z,-0.16
2016-11-08T01:53:54.423Z,-0.16
2016-11-08T01:54:54.079Z,-0.18
2016-11-08T01:55:54.341Z,-0.21
2016-11-08T01:56:54.601Z,-0.22
2016-11-08T01:57:54.256Z,-0.28
2016-11-08T01:58:54.516Z,-0.31
2016-11-08T01:59:54.475Z,-0.19
2016-11-08T02:00:54.426Z,-0.39
2016-11-08T02:01:54.386Z,-0.34
2016-11-08T02:02:54.341Z,-0.37
2016-11-08T02:03:54.337Z,-0.39
2016-11-08T02:04:54.258Z,-0.37
2016-11-08T02:05:54.216Z,-0.36
2016-11-08T02:06:53.871Z,-0.4
2016-11-08T02:07:53.528Z,-0.58
2016-11-08T02:08:54.088Z,-0.52
2016-11-08T02:09:53.778Z,-0.52
2016-11-08T02:10:54.006Z,-0.61
2016-11-08T02:11:53.957Z,-0.47
2016-11-08T02:12:53.919Z,-0.51
2016-11-08T02:13:53.575Z,-0.58
2016-11-08T02:14:53.835Z,-0.54
2016-11-08T02:15:53.788Z,-0.6
2016-11-08T02:16:53.446Z,-0.58
2016-11-08T02:17:53.400Z,-0.61
2016-11-08T02:18:53.661Z,-0.58
2016-11-08T02:19:53.618Z,-0.55
2016-11-08T02:20:53.577Z,-0.62
2016-11-08T02:21:53.534Z,-0.57
2016-11-08T02:22:53.508Z,-0.64
2016-11-08T02:23:53.478Z,-0.6
2016-11-08T02:24:53.105Z,-0.61
2016-11-08T02:25:53.066Z,-0.69
2016-11-08T02:26:53.018Z,-0.6
2016-11-08T02:27:52.976Z,-0.67
2016-11-08T02:28:53.245Z,-0.67
2016-11-08T02:29:53.196Z,-0.61
2016-11-08T02:30:53.148Z,-0.65
2016-11-08T02:31:52.806Z,-0.7
2016-11-08T02:32:52.759Z,-0.76
2016-11-08T02:33:53.022Z,-0.65
2016-11-08T02:34:52.981Z,-0.69
2016-11-08T02:35:52.933Z,-0.62
2016-11-08T02:36:52.893Z,-0.6
2016-11-08T02:37:52.846Z,-0.64
2016-11-08T02:38:52.505Z,-0.6
2016-11-08T02:39:52.762Z,-0.58
2016-11-08T02:40:52.721Z,-0.72
2016-11-08T02:41:52.682Z,-0.67
2016-11-08T02:42:52.331Z,-0.57
2016-11-08T02:43:52.594Z,-0.54
2016-11-08T02:44:52.547Z,-0.55
2016-11-08T02:45:52.202Z,-0.6
2016-11-08T02:46:52.459Z,-0.58
2016-11-08T02:47:52.116Z,-0.67
2016-11-08T02:48:52.373Z,-0.6
2016-11-08T02:49:52.340Z,-0.6
2016-11-08T02:50:52.293Z,-0.6
2016-11-08T02:51:52.247Z,-0.64
2016-11-08T02:52:51.905Z,-0.61
2016-11-08T02:53:52.169Z,-0.75
2016-11-08T02:54:52.119Z,-0.72
2016-11-08T02:55:51.780Z,-0.64
2016-11-08T02:56:52.039Z,-0.73
2016-11-08T02:57:51.388Z,-0.69
2016-11-08T02:58:51.948Z,-0.75
2016-11-08T02:59:51.905Z,-0.67
2016-11-08T03:00:51.559Z,-0.72
2016-11-08T03:01:51.819Z,-0.65
2016-11-08T03:02:51.777Z,-0.67
2016-11-08T03:03:51.735Z,-0.61
2016-11-08T03:04:51.692Z,-0.6
2016-11-08T03:05:51.649Z,-0.69
2016-11-08T03:06:51.604Z,-0.64
2016-11-08T03:07:50.959Z,-0.6
2016-11-08T03:08:51.521Z,-0.55
2016-11-08T03:09:51.174Z,-0.6
2016-11-08T03:10:51.433Z,-0.58
2016-11-08T03:11:51.089Z,-0.62
2016-11-08T03:12:51.348Z,-0.51
2016-11-08T03:13:51.303Z,-0.49
2016-11-08T03:14:50.959Z,-0.51
2016-11-08T03:15:51.222Z,-0.43
2016-11-08T03:16:50.876Z,-0.37
2016-11-08T03:17:50.836Z,-0.28
2016-11-08T03:18:50.792Z,-0.31
2016-11-08T03:19:51.086Z,-0.21
2016-11-08T03:20:50.699Z,-0.25
2016-11-08T03:21:50.962Z,-0.23
2016-11-08T03:22:50.619Z,-0.11
2016-11-08T03:23:50.875Z,-0.16
2016-11-08T03:24:50.832Z,-0.05
2016-11-08T03:25:50.491Z,-0.04
2016-11-08T03:26:50.751Z,0.03
2016-11-08T03:27:50.400Z,0.02
2016-11-08T03:28:50.662Z,0.1
2016-11-08T03:29:50.318Z,0.11
2016-11-08T03:30:50.576Z,0.11
2016-11-08T03:31:50.534Z,0.24
2016-11-08T03:32:49.885Z,0.26
2016-11-08T03:33:50.145Z,0.21
2016-11-08T03:34:50.102Z,0.26
2016-11-08T03:35:50.070Z,0.31
2016-11-08T03:36:50.322Z,0.24
2016-11-08T03:37:50.275Z,0.36
2016-11-08T03:38:49.630Z,0.38
2016-11-08T03:39:49.892Z,0.44
2016-11-08T03:40:50.151Z,0.47
2016-11-08T03:41:50.107Z,0.57
2016-11-08T03:42:50.062Z,0.49
2016-11-08T03:43:50.059Z,0.65
2016-11-08T03:44:49.716Z,0.61
2016-11-08T03:45:49.634Z,0.62
2016-11-08T03:46:49.903Z,0.76
2016-11-08T03:47:49.853Z,0.76
2016-11-08T03:48:49.811Z,0.76
2016-11-08T03:49:49.769Z,0.79
2016-11-08T03:50:49.727Z,0.86
2016-11-08T03:51:49.077Z,0.8
2016-11-08T03:52:49.639Z,0.86
2016-11-08T03:53:49.298Z,0.88
2016-11-08T03:54:49.552Z,0.91
2016-11-08T03:55:49.208Z,0.86
2016-11-08T03:56:49.468Z,0.9
2016-11-08T03:57:49.432Z,0.93
2016-11-08T03:58:49.081Z,0.97
2016-11-08T03:59:49.343Z,0.98
2016-11-08T04:00:49.301Z,0.98
2016-11-08T04:01:49.256Z,1.06
2016-11-08T04:02:48.914Z,1.08
2016-11-08T04:03:48.874Z,1.08
2016-11-08T04:04:48.529Z,1.14
2016-11-08T04:05:49.089Z,1.18
2016-11-08T04:06:49.043Z,1.26
2016-11-08T04:07:48.704Z,1.18
2016-11-08T04:08:48.962Z,1.24
2016-11-08T04:09:48.620Z,1.29
2016-11-08T04:10:48.576Z,1.2
2016-11-08T04:11:48.836Z,1.2
2016-11-08T04:12:48.490Z,1.12
2016-11-08T04:13:48.748Z,1.16
2016-11-08T04:14:48.104Z,1.12
2016-11-08T04:15:48.361Z,1.2
2016-11-08T04:16:48.621Z,1.16
2016-11-08T04:17:48.586Z,1.15
2016-11-08T04:18:48.234Z,1.18
2016-11-08T04:19:48.497Z,1.2
2016-11-08T04:20:48.153Z,1.24
2016-11-08T04:21:48.442Z,1.22
2016-11-08T04:22:48.367Z,1.22
2016-11-08T04:23:48.322Z,1.3
2016-11-08T04:24:48.285Z,1.32
2016-11-08T04:25:48.244Z,1.24
2016-11-08T04:26:47.895Z,1.29
2016-11-08T04:27:47.857Z,1.29
2016-11-08T04:28:48.115Z,1.27
2016-11-08T04:29:48.074Z,1.27
2016-11-08T04:30:48.034Z,1.4
2016-11-08T04:31:47.994Z,1.4
2016-11-08T04:32:47.648Z,1.41
2016-11-08T04:33:47.605Z,1.47
2016-11-08T04:34:47.561Z,1.45
2016-11-08T04:35:47.519Z,1.45
2016-11-08T04:36:47.778Z,1.51
2016-11-08T04:37:47.736Z,1.52
2016-11-08T04:38:47.697Z,1.54
2016-11-08T04:39:47.650Z,1.54
2016-11-08T04:40:47.641Z,1.63
2016-11-08T04:41:47.567Z,1.55
2016-11-08T04:42:47.524Z,1.6
2016-11-08T04:43:47.488Z,1.62
2016-11-08T04:44:47.439Z,1.66
2016-11-08T04:45:47.407Z,1.69
2016-11-08T04:46:47.365Z,1.66
2016-11-08T04:47:47.314Z,1.65
2016-11-08T04:48:47.275Z,1.68
2016-11-08T04:49:46.928Z,1.65
2016-11-08T04:50:47.188Z,1.7
2016-11-08T04:51:47.154Z,1.66
2016-11-08T04:52:46.804Z,1.69
2016-11-08T04:53:46.764Z,1.7
2016-11-08T04:54:47.015Z,1.69
2016-11-08T04:55:46.679Z,1.7
2016-11-08T04:56:46.940Z,1.81
2016-11-08T04:57:46.898Z,1.76
2016-11-08T04:58:46.853Z,1.81
2016-11-08T04:59:46.812Z,1.83
2016-11-08T05:00:46.763Z,1.79
2016-11-08T05:01:46.427Z,1.77
2016-11-08T05:02:46.685Z,1.83
2016-11-08T05:03:46.340Z,1.84
2016-11-08T05:04:45.996Z,1.9
2016-11-08T05:05:46.594Z,1.87
2016-11-08T05:06:46.514Z,1.88
2016-11-08T05:07:46.175Z,1.98
2016-11-08T05:08:46.431Z,2.03
2016-11-08T05:09:46.386Z,1.87
2016-11-08T05:10:45.743Z,1.93
2016-11-08T05:11:46.346Z,1.99
2016-11-08T05:12:46.265Z,2
2016-11-08T05:13:45.918Z,1.91
2016-11-08T05:14:46.192Z,2.03
2016-11-08T05:15:46.137Z,1.9
2016-11-08T05:16:46.098Z,1.93
2016-11-08T05:17:46.054Z,2.05
2016-11-08T05:18:45.410Z,1.99
2016-11-08T05:19:45.370Z,1.93
2016-11-08T05:20:45.933Z,2.05
2016-11-08T05:21:45.887Z,2.06
2016-11-08T05:22:45.545Z,2.03
2016-11-08T05:23:45.503Z,2.05
2016-11-08T05:24:45.458Z,2.02
2016-11-08T05:25:45.419Z,2.09
2016-11-08T05:26:45.377Z,2.02
2016-11-08T05:27:45.636Z,2.02
2016-11-08T05:28:45.599Z,2
2016-11-08T05:29:45.556Z,2.06
2016-11-08T05:30:45.511Z,2.05
2016-11-08T05:31:45.471Z,2.05
2016-11-08T05:32:45.436Z,2.06
2016-11-08T05:33:45.385Z,2.05
2016-11-08T05:34:45.345Z,2.05
2016-11-08T05:35:45.300Z,2.05
2016-11-08T05:36:45.264Z,2.02
2016-11-08T05:37:45.217Z,2.03
2016-11-08T05:38:44.875Z,2.05
2016-11-08T05:39:45.135Z,2.07
2016-11-08T05:40:45.095Z,2.06
2016-11-08T05:41:45.075Z,2.07
2016-11-08T05:42:45.014Z,2.06
2016-11-08T05:43:44.364Z,2.18
2016-11-08T05:44:44.959Z,2.16
2016-11-08T05:45:44.612Z,2.16
2016-11-08T05:46:44.850Z,2.18
2016-11-08T05:47:44.803Z,2.21
2016-11-08T05:48:44.457Z,2.2
2016-11-08T05:49:44.111Z,2.2
2016-11-08T05:50:44.675Z,2.3
2016-11-08T05:51:44.633Z,2.34
2016-11-08T05:52:44.597Z,2.24
2016-11-08T05:53:43.941Z,2.28
2016-11-08T05:54:44.509Z,2.27
2016-11-08T05:55:44.466Z,2.34
2016-11-08T05:56:44.422Z,2.35
2016-11-08T05:57:44.382Z,2.39
2016-11-08T05:58:44.341Z,2.24
2016-11-08T05:59:44.299Z,2.38
2016-11-08T06:00:43.651Z,2.28
2016-11-08T06:01:43.609Z,2.42
2016-11-08T06:02:43.567Z,2.34
2016-11-08T06:03:44.132Z,2.36
2016-11-08T06:04:44.125Z,2.39
2016-11-08T06:05:43.749Z,2.42
2016-11-08T06:06:43.699Z,2.36
2016-11-08T06:07:43.965Z,2.38
2016-11-08T06:08:43.618Z,2.38
2016-11-08T06:09:43.881Z,2.41
2016-11-08T06:10:43.845Z,2.36
2016-11-08T06:11:43.802Z,2.41
2016-11-08T06:12:43.451Z,2.39
2016-11-08T06:13:43.413Z,2.35
2016-11-08T06:14:43.672Z,2.38
2016-11-08T06:15:43.026Z,2.42
2016-11-08T06:16:43.591Z,2.38
2016-11-08T06:17:43.548Z,2.41
2016-11-08T06:18:43.541Z,2.45
2016-11-08T06:19:43.465Z,2.49
2016-11-08T06:20:43.422Z,2.46
2016-11-08T06:21:43.378Z,2.45
2016-11-08T06:22:43.344Z,2.42
2016-11-08T06:23:43.313Z,2.45
2016-11-08T06:24:43.255Z,2.43
2016-11-08T06:25:42.914Z,2.46
2016-11-08T06:26:43.173Z,2.46
2016-11-08T06:27:43.134Z,2.52
2016-11-08T06:28:43.088Z,2.56
2016-11-08T06:29:42.745Z,2.45
2016-11-08T06:30:42.703Z,2.45
2016-11-08T06:31:42.958Z,2.56
2016-11-08T06:32:42.921Z,2.56
2016-11-08T06:33:42.883Z,2.6
2016-11-08T06:34:42.233Z,2.54
2016-11-08T06:35:42.802Z,2.54
2016-11-08T06:36:42.752Z,2.6
2016-11-08T06:37:42.712Z,2.61
2016-11-08T06:38:42.669Z,2.57
2016-11-08T06:39:42.633Z,2.67
2016-11-08T06:40:42.597Z,2.61
2016-11-08T06:41:42.548Z,2.67
2016-11-08T06:42:42.503Z,2.64
2016-11-08T06:43:42.463Z,2.66
2016-11-08T06:44:42.418Z,2.66
2016-11-08T06:45:42.079Z,2.63
2016-11-08T06:46:42.048Z,2.61
2016-11-08T06:47:42.294Z,2.67
2016-11-08T06:48:42.252Z,2.69
2016-11-08T06:49:41.916Z,2.69
2016-11-08T06:50:42.171Z,2.72
2016-11-08T06:51:41.828Z,2.78
2016-11-08T06:52:41.788Z,2.72
2016-11-08T06:53:42.050Z,2.72
2016-11-08T06:54:42.011Z,2.74
2016-11-08T06:55:41.963Z,2.77
2016-11-08T06:56:41.624Z,2.84
2016-11-08T06:57:41.598Z,2.78
2016-11-08T06:58:41.845Z,2.87
2016-11-08T06:59:41.800Z,2.79
2016-11-08T07:00:41.763Z,2.77
2016-11-08T07:01:41.729Z,2.93
2016-11-08T07:02:41.377Z,2.89
2016-11-08T07:03:41.634Z,2.93
2016-11-08T07:04:41.592Z,2.84
2016-11-08T07:05:41.249Z,2.92
2016-11-08T07:06:41.511Z,2.77
2016-11-08T07:07:41.474Z,2.82
2016-11-08T07:08:41.429Z,2.85
2016-11-08T07:09:41.387Z,2.85
2016-11-08T07:10:41.348Z,2.9
2016-11-08T07:11:40.999Z,2.95
2016-11-08T07:12:40.956Z,2.92
2016-11-08T07:13:40.916Z,3
2016-11-08T07:14:41.182Z,2.93
2016-11-08T07:15:41.135Z,2.92
2016-11-08T07:16:41.131Z,3.06
2016-11-08T07:17:41.058Z,3.03
2016-11-08T07:18:40.712Z,2.93
2016-11-08T07:19:40.976Z,2.99
2016-11-08T07:20:40.928Z,2.97
2016-11-08T07:21:40.589Z,3.11
2016-11-08T07:22:40.850Z,3.05
2016-11-08T07:23:40.805Z,3.11
2016-11-08T07:24:40.463Z,3.11
2016-11-08T07:25:40.722Z,3.18
2016-11-08T07:26:40.685Z,3.26
2016-11-08T07:27:40.640Z,3.15
2016-11-08T07:28:40.599Z,3.29
2016-11-08T07:29:40.256Z,3.23
2016-11-08T07:30:40.518Z,3.24
2016-11-08T07:31:40.478Z,3.24
2016-11-08T07:32:40.437Z,3.29
2016-11-08T07:33:40.394Z,3.36
2016-11-08T07:34:40.050Z,3.4
2016-11-08T07:35:40.311Z,3.4
2016-11-08T07:36:40.276Z,3.36
2016-11-08T07:37:39.942Z,3.4
2016-11-08T07:38:39.887Z,3.45
2016-11-08T07:39:40.152Z,3.43
2016-11-08T07:40:40.103Z,3.47
2016-11-08T07:41:39.763Z,3.48
2016-11-08T07:42:39.724Z,3.52
2016-11-08T07:43:39.682Z,3.54
2016-11-08T07:44:39.938Z,3.43
2016-11-08T07:45:39.602Z,3.58
2016-11-08T07:46:39.557Z,3.58
2016-11-08T07:47:39.818Z,3.62
2016-11-08T07:48:39.792Z,3.52
2016-11-08T07:49:39.738Z,3.6
2016-11-08T07:50:39.699Z,3.66
2016-11-08T07:51:39.655Z,3.79
2016-11-08T07:52:39.332Z,3.75
2016-11-08T07:53:39.570Z,3.73
2016-11-08T07:54:39.530Z,3.86
2016-11-08T07:55:39.186Z,3.79
2016-11-08T07:56:39.175Z,3.83
2016-11-08T07:57:39.415Z,3.83
2016-11-08T07:58:39.103Z,3.9
2016-11-08T07:59:39.324Z,3.93
2016-11-08T08:00:38.981Z,3.88
2016-11-08T08:01:38.945Z,3.84
2016-11-08T08:02:39.203Z,4.04
2016-11-08T08:03:38.857Z,3.98
2016-11-08T08:04:38.823Z,3.94
2016-11-08T08:05:38.774Z,4.05
2016-11-08T08:06:39.039Z,4.06
2016-11-08T08:07:38.731Z,4.06
2016-11-08T08:08:38.962Z,4.05
2016-11-08T08:09:38.616Z,4
2016-11-08T08:10:38.878Z,3.97
2016-11-08T08:11:38.535Z,4.12
2016-11-08T08:12:38.799Z,4.09
2016-11-08T08:13:38.449Z,4.12
2016-11-08T08:14:38.716Z,4.16
2016-11-08T08:15:38.370Z,4.27
2016-11-08T08:16:38.332Z,4.27
2016-11-08T08:17:38.595Z,4.29
2016-11-08T08:18:38.547Z,4.27
2016-11-08T08:19:38.510Z,4.3
2016-11-08T08:20:38.470Z,4.34
2016-11-08T08:21:38.426Z,4.36
2016-11-08T08:22:38.089Z,4.45
2016-11-08T08:23:38.344Z,4.3
2016-11-08T08:24:37.999Z,4.34
2016-11-08T08:25:37.964Z,4.32
2016-11-08T08:26:38.229Z,4.27
2016-11-08T08:27:38.183Z,4.26
2016-11-08T08:28:38.144Z,4.23
2016-11-08T08:29:38.108Z,4.24
2016-11-08T08:30:38.069Z,4.18
2016-11-08T08:31:37.720Z,4.22
2016-11-08T08:32:37.681Z,4.15
2016-11-08T08:33:37.945Z,4.16
2016-11-08T08:34:37.596Z,4.16
2016-11-08T08:35:37.861Z,4.14
2016-11-08T08:36:37.517Z,4.18
2016-11-08T08:37:37.474Z,4.22
2016-11-08T08:38:37.435Z,4.3
2016-11-08T08:39:37.699Z,4.34
2016-11-08T08:40:37.659Z,4.47
2016-11-08T08:41:37.321Z,4.54
2016-11-08T08:42:37.576Z,4.48
2016-11-08T08:43:37.267Z,4.55
2016-11-08T08:44:37.233Z,4.48
2016-11-08T08:45:37.458Z,4.51
2016-11-08T08:46:37.411Z,4.58
2016-11-08T08:47:37.376Z,4.67
2016-11-08T08:48:37.029Z,4.7
2016-11-08T08:49:37.295Z,4.82
2016-11-08T08:50:36.951Z,4.92
2016-11-08T08:51:36.604Z,5
2016-11-08T08:52:36.876Z,5.12
2016-11-08T08:53:37.133Z,5.18
2016-11-08T08:54:36.792Z,5.17
2016-11-08T08:55:36.750Z,5.24
2016-11-08T08:56:37.009Z,5.33
2016-11-08T08:57:36.669Z,5.4
2016-11-08T08:58:36.933Z,5.43
2016-11-08T08:59:36.893Z,5.43
2016-11-08T09:00:36.856Z,5.45
2016-11-08T09:01:36.814Z,5.43
2016-11-08T09:02:36.470Z,5.43
2016-11-08T09:03:36.734Z,5.38
2016-11-08T09:04:36.691Z,5.33
2016-11-08T09:05:36.649Z,5.28
2016-11-08T09:06:36.609Z,5.31
2016-11-08T09:07:36.572Z,5.38
2016-11-08T09:08:36.225Z,5.3
2016-11-08T09:09:36.492Z,5.33
2016-11-08T09:10:36.146Z,5.33
2016-11-08T09:11:36.411Z,5.3
2016-11-08T09:12:36.070Z,5.3
2016-11-08T09:13:36.033Z,5.28
2016-11-08T09:14:36.290Z,5.4
2016-11-08T09:15:35.950Z,5.42
2016-11-08T09:16:35.902Z,5.42
2016-11-08T09:17:35.871Z,5.51
2016-11-08T09:18:36.135Z,5.67
2016-11-08T09:19:35.790Z,5.56
2016-11-08T09:20:35.749Z,5.68
2016-11-08T09:21:36.012Z,5.72
2016-11-08T09:22:35.671Z,5.82
2016-11-08T09:23:35.931Z,5.72
2016-11-08T09:24:35.589Z,5.81
2016-11-08T09:25:35.551Z,5.9
2016-11-08T09:26:35.510Z,6.11
2016-11-08T09:27:35.773Z,6.3
2016-11-08T09:28:35.744Z,6.46
2016-11-08T09:29:35.692Z,6.77
2016-11-08T09:30:35.654Z,6.84
2016-11-08T09:31:35.613Z,6.99
2016-11-08T09:32:35.271Z,7.12
2016-11-08T09:33:35.538Z,7.28
2016-11-08T09:34:35.195Z,7.32
2016-11-08T09:35:35.456Z,7.39
2016-11-08T09:36:35.115Z,7.32
2016-11-08T09:37:35.384Z,7.27
2016-11-08T09:38:34.740Z,7.15
2016-11-08T09:39:35.301Z,7.21
2016-11-08T09:40:35.262Z,7.32
2016-11-08T09:41:35.225Z,7.32
2016-11-08T09:42:35.188Z,7.31
2016-11-08T09:43:35.148Z,7.34
2016-11-08T09:44:34.848Z,7.31
2016-11-08T09:45:35.074Z,7.25
2016-11-08T09:46:34.428Z,7.3
2016-11-08T09:47:35.000Z,7.17
2016-11-08T09:48:34.948Z,7.15
2016-11-08T09:49:34.916Z,7.25
2016-11-08T09:50:34.885Z,7.21
2016-11-08T09:51:34.837Z,7.2
2016-11-08T09:52:34.500Z,7.23
2016-11-08T09:53:34.690Z,7.07
2016-11-08T09:54:34.421Z,7.07
2016-11-08T09:55:34.080Z,7.12
2016-11-08T09:56:34.648Z,7.21
2016-11-08T09:57:34.608Z,7.2
2016-11-08T09:58:34.569Z,7.23
2016-11-08T09:59:34.231Z,7.23
2016-11-08T10:00:34.489Z,7.39
2016-11-08T10:01:34.455Z,7.35
2016-11-08T10:02:34.110Z,7.43
2016-11-08T10:03:34.378Z,7.34
2016-11-08T10:04:34.068Z,7.53
2016-11-08T10:05:34.002Z,7.52
2016-11-08T10:06:34.267Z,7.64
2016-11-08T10:07:33.927Z,7.64
2016-11-08T10:08:33.887Z,7.63
2016-11-08T10:09:34.144Z,7.68
2016-11-08T10:10:34.111Z,7.5
2016-11-08T10:11:33.772Z,7.46
2016-11-08T10:12:33.762Z,7.48
2016-11-08T10:13:33.695Z,7.37
2016-11-08T10:14:33.952Z,7.46
2016-11-08T10:15:33.615Z,7.37
2016-11-08T10:16:33.879Z,7.45
2016-11-08T10:17:33.541Z,7.39
2016-11-08T10:18:33.804Z,7.35
2016-11-08T10:19:33.762Z,7.37
2016-11-08T10:20:33.734Z,7.43
2016-11-08T10:21:33.718Z,7.48
2016-11-08T10:22:33.345Z,7.4
2016-11-08T10:23:33.612Z,7.4
2016-11-08T10:24:33.577Z,7.34
2016-11-08T10:25:33.541Z,7.39
2016-11-08T10:26:33.492Z,7.37
2016-11-08T10:27:33.455Z,7.35
2016-11-08T10:28:33.416Z,7.3
2016-11-08T10:29:33.384Z,7.35
2016-11-08T10:30:33.339Z,7.34
2016-11-08T10:31:33.302Z,7.32
2016-11-08T10:32:33.272Z,7.35
2016-11-08T10:33:32.925Z,7.37
2016-11-08T10:34:33.222Z,7.34
2016-11-08T10:35:32.852Z,7.37
2016-11-08T10:36:33.120Z,7.28
2016-11-08T10:37:33.077Z,7.31
2016-11-08T10:38:33.033Z,7.23
2016-11-08T10:39:32.999Z,7.25
2016-11-08T10:40:32.961Z,7.23
2016-11-08T10:41:32.925Z,7.21
2016-11-08T10:42:32.578Z,7.24
2016-11-08T10:43:32.844Z,7.17
2016-11-08T10:44:32.806Z,7.21
2016-11-08T10:45:32.765Z,7.24
2016-11-08T10:46:32.727Z,7.13
2016-11-08T10:47:32.397Z,7.15
2016-11-08T10:48:32.651Z,7.15
2016-11-08T10:49:32.610Z,7.23
2016-11-08T10:50:32.271Z,7.15
2016-11-08T10:51:32.234Z,7.23
2016-11-08T10:52:32.494Z,7.25
2016-11-08T10:53:32.458Z,7.24
2016-11-08T10:54:32.424Z,7.37
2016-11-08T10:55:32.381Z,7.39
2016-11-08T10:56:32.370Z,7.39
2016-11-08T10:57:32.002Z,7.55
2016-11-08T10:58:32.270Z,7.98
2016-11-08T10:59:32.229Z,8.55
2016-11-08T11:00:32.188Z,9.28
2016-11-08T11:01:31.934Z,10.02
2016-11-08T11:02:31.812Z,10.71
2016-11-08T11:03:31.781Z,11.35
2016-11-08T11:04:32.046Z,11.83
2016-11-08T11:05:32.003Z,12.29
2016-11-08T11:06:31.665Z,12.78
2016-11-08T11:07:31.628Z,13.03
2016-11-08T11:08:31.904Z,13.26
2016-11-08T11:09:31.562Z,13.38
2016-11-08T11:10:31.527Z,13.36
2016-11-08T11:11:31.491Z,13.26
2016-11-08T11:12:31.456Z,13.14
2016-11-08T11:13:31.723Z,13.01
2016-11-08T11:14:31.388Z,12.67
2016-11-08T11:15:31.659Z,12.47
2016-11-08T11:16:31.317Z,12.32
2016-11-08T11:17:31.586Z,12.13
2016-11-08T11:18:31.251Z,12.01
2016-11-08T11:19:31.520Z,11.82
2016-11-08T11:20:31.186Z,11.64
2016-11-08T11:21:31.455Z,11.6
2016-11-08T11:22:31.420Z,11.73
2016-11-08T11:23:31.385Z,11.9
2016-11-08T11:24:31.050Z,12.09
2016-11-08T11:25:31.313Z,12.14
2016-11-08T11:26:31.277Z,12.35
2016-11-08T11:27:30.941Z,12.19
2016-11-08T11:28:31.219Z,12.2
2016-11-08T11:29:30.875Z,12.19
2016-11-08T11:30:30.544Z,11.98
2016-11-08T11:31:31.107Z,11.85
2016-11-08T11:32:30.771Z,11.75
2016-11-08T11:33:30.737Z,11.54
2016-11-08T11:34:31.040Z,11.36
2016-11-08T11:35:30.368Z,11.32
2016-11-08T11:36:30.629Z,11.07
2016-11-08T11:37:30.901Z,11.06
2016-11-08T11:38:30.262Z,11.02
2016-11-08T11:39:30.836Z,10.99
2016-11-08T11:40:30.795Z,10.89
2016-11-08T11:41:30.156Z,10.78
2016-11-08T11:42:30.729Z,10.73
2016-11-08T11:43:30.693Z,10.68
2016-11-08T11:44:30.658Z,10.59
2016-11-08T11:45:30.620Z,10.52
2016-11-08T11:46:30.589Z,10.42
2016-11-08T11:47:30.569Z,10.3
2016-11-08T11:48:30.518Z,10.33
2016-11-08T11:49:30.185Z,10.25
2016-11-08T11:50:30.446Z,10.18
2016-11-08T11:51:30.107Z,10.14
2016-11-08T11:52:30.373Z,9.97
2016-11-08T11:53:30.070Z,9.81
2016-11-08T11:54:30.304Z,9.86
2016-11-08T11:55:30.276Z,9.83
2016-11-08T11:56:29.935Z,9.79
2016-11-08T11:57:29.897Z,9.83
2016-11-08T11:58:29.868Z,9.83
2016-11-08T11:59:29.822Z,9.68
2016-11-08T12:00:30.093Z,9.64
2016-11-08T12:01:30.056Z,9.68
2016-11-08T12:02:30.017Z,9.65
2016-11-08T12:03:29.976Z,9.56
2016-11-08T12:04:29.939Z,9.53
2016-11-08T12:05:29.607Z,9.57
2016-11-08T12:06:29.871Z,9.66
2016-11-08T12:07:29.531Z,9.66
2016-11-08T12:08:29.801Z,9.64
2016-11-08T12:09:29.775Z,9.76
2016-11-08T12:10:29.725Z,9.69
2016-11-08T12:11:29.689Z,9.75
2016-11-08T12:12:29.353Z,9.78
2016-11-08T12:13:29.616Z,9.81
2016-11-08T12:14:29.274Z,9.81
2016-11-08T12:15:29.235Z,9.81
2016-11-08T12:16:29.201Z,9.84
2016-11-08T12:17:29.468Z,9.79
2016-11-08T12:18:29.438Z,9.81
2016-11-08T12:19:29.399Z,9.84
2016-11-08T12:20:29.361Z,9.78
2016-11-08T12:21:29.329Z,9.76
2016-11-08T12:22:29.297Z,9.72
2016-11-08T12:23:28.954Z,9.68
2016-11-08T12:24:29.214Z,9.74
2016-11-08T12:25:28.875Z,9.76
2016-11-08T12:26:28.837Z,9.75
2016-11-08T12:27:28.809Z,9.72
2016-11-08T12:28:28.463Z,9.76
2016-11-08T12:29:29.028Z,9.79
2016-11-08T12:30:28.995Z,9.9
2016-11-08T12:31:28.965Z,9.79
2016-11-08T12:32:28.614Z,9.86
2016-11-08T12:33:28.878Z,9.93
2016-11-08T12:34:28.553Z,10.04
2016-11-08T12:35:28.808Z,10.07
2016-11-08T12:36:28.775Z,10.18
2016-11-08T12:37:28.736Z,10.15
2016-11-08T12:38:28.702Z,10.34
2016-11-08T12:39:28.375Z,10.4
2016-11-08T12:40:28.321Z,10.33
2016-11-08T12:41:28.591Z,10.26
2016-11-08T12:42:28.554Z,10.15
2016-11-08T12:43:28.519Z,10.18
2016-11-08T12:44:28.481Z,10.11
2016-11-08T12:45:28.446Z,10.14
2016-11-08T12:46:28.407Z,9.99
2016-11-08T12:47:28.066Z,9.9
2016-11-08T12:48:28.380Z,9.93
2016-11-08T12:49:27.992Z,9.83
2016-11-08T12:50:27.993Z,9.66
2016-11-08T12:51:28.230Z,9.58
2016-11-08T12:52:28.187Z,9.4
2016-11-08T12:53:27.849Z,9.21
2016-11-08T12:54:28.115Z,9.05
2016-11-08T12:55:28.076Z,8.95
2016-11-08T12:56:27.738Z,8.87
2016-11-08T12:57:28.003Z,8.8
2016-11-08T12:58:27.996Z,8.81
2016-11-08T12:59:27.625Z,8.76
2016-11-08T13:00:27.589Z,8.73
2016-11-08T13:01:27.861Z,8.71
2016-11-08T13:02:27.822Z,8.7
2016-11-08T13:03:27.788Z,8.56
2016-11-08T13:04:27.444Z,8.63
2016-11-08T13:05:27.708Z,8.63
2016-11-08T13:06:27.376Z,8.63
2016-11-08T13:07:27.633Z,8.66
2016-11-08T13:08:27.593Z,8.62
2016-11-08T13:09:27.555Z,8.53
2016-11-08T13:10:27.520Z,8.65
2016-11-08T13:11:27.483Z,8.62
2016-11-08T13:12:26.840Z,8.59
2016-11-08T13:13:27.409Z,8.55
2016-11-08T13:14:27.071Z,8.43
2016-11-08T13:15:27.030Z,8.48
2016-11-08T13:16:27.297Z,8.34